createdAt,value
2017-09-29T00:00:57.626Z,17.50
2017-09-29T00:03:26.000Z,17.50
2017-09-29T00:05:54.378Z,17.40
2017-09-29T00:08:22.768Z,17.30
2017-09-29T00:10:51.182Z,17.30
2017-09-29T00:13:19.543Z,17.30
2017-09-29T00:15:47.934Z,17.30
2017-09-29T00:18:16.301Z,17.30
2017-09-29T00:20:46.123Z,17.40
2017-09-29T00:23:15.504Z,17.30
2017-09-29T00:25:44.205Z,17.40
2017-09-29T00:28:12.582Z,17.40
2017-09-29T00:30:41.165Z,17.40
2017-09-29T00:33:09.638Z,17.40
2017-09-29T00:35:38.000Z,17.30
2017-09-29T00:38:06.373Z,17.30
2017-09-29T00:40:34.300Z,17.30
2017-09-29T00:43:02.673Z,17.30
2017-09-29T00:45:30.800Z,17.40
2017-09-29T00:47:59.180Z,17.40
2017-09-29T00:50:27.564Z,17.30
2017-09-29T00:52:55.992Z,17.30
2017-09-29T00:55:24.012Z,17.30
2017-09-29T00:57:52.374Z,17.40
2017-09-29T01:00:20.059Z,17.40
2017-09-29T01:02:48.101Z,17.40
2017-09-29T01:05:16.581Z,17.40
2017-09-29T01:07:44.990Z,17.40
2017-09-29T01:10:13.363Z,17.40
2017-09-29T01:12:41.938Z,17.40
2017-09-29T01:15:10.081Z,17.40
2017-09-29T01:17:37.845Z,17.40
2017-09-29T01:20:05.607Z,17.40
2017-09-29T01:22:33.673Z,17.40
2017-09-29T01:25:01.733Z,17.40
2017-09-29T01:27:29.752Z,17.40
2017-09-29T01:29:57.759Z,17.40
2017-09-29T01:32:25.638Z,17.40
2017-09-29T01:34:53.668Z,17.40
2017-09-29T01:37:21.983Z,17.40
2017-09-29T01:39:49.663Z,17.40
2017-09-29T01:42:17.671Z,17.40
2017-09-29T01:44:46.063Z,17.40
2017-09-29T01:47:14.695Z,17.30
2017-09-29T01:49:42.708Z,17.30
2017-09-29T01:52:11.143Z,17.30
2017-09-29T01:54:38.819Z,17.30
2017-09-29T01:57:06.634Z,17.30
2017-09-29T01:59:34.294Z,17.30
2017-09-29T02:02:01.983Z,17.30
2017-09-29T02:04:29.658Z,17.30
2017-09-29T02:06:57.336Z,17.40
2017-09-29T02:09:25.782Z,17.40
2017-09-29T02:11:53.801Z,17.30
2017-09-29T02:14:21.466Z,17.30
2017-09-29T02:16:48.951Z,17.40
2017-09-29T02:19:16.626Z,17.40
2017-09-29T02:21:44.311Z,17.30
2017-09-29T02:24:12.678Z,17.30
2017-09-29T02:26:41.003Z,17.30
2017-09-29T02:29:08.672Z,17.30
2017-09-29T02:31:36.418Z,17.30
2017-09-29T02:34:04.291Z,17.30
2017-09-29T02:36:32.377Z,17.30
2017-09-29T02:39:00.486Z,17.30
2017-09-29T02:41:28.153Z,17.30
2017-09-29T02:43:56.594Z,17.30
2017-09-29T02:46:24.278Z,17.30
2017-09-29T02:48:51.969Z,17.30
2017-09-29T02:51:19.952Z,17.30
2017-09-29T02:53:47.714Z,17.30
2017-09-29T02:56:15.378Z,17.20
2017-09-29T02:58:45.058Z,17.20
2017-09-29T03:01:15.039Z,17.30
2017-09-29T03:03:44.431Z,17.30
2017-09-29T03:06:12.816Z,17.20
2017-09-29T03:08:40.494Z,17.20
2017-09-29T03:11:08.546Z,17.20
2017-09-29T03:13:37.702Z,17.20
2017-09-29T03:16:06.065Z,17.20
2017-09-29T03:18:34.429Z,17.20
2017-09-29T03:21:02.791Z,17.30
2017-09-29T03:23:31.188Z,17.20
2017-09-29T03:25:59.543Z,17.20
2017-09-29T03:28:27.913Z,17.20
2017-09-29T03:30:56.292Z,17.20
2017-09-29T03:33:24.693Z,17.20
2017-09-29T03:35:53.048Z,17.20
2017-09-29T03:38:21.419Z,17.20
2017-09-29T03:40:49.924Z,17.20
2017-09-29T03:43:18.323Z,17.20
2017-09-29T03:45:46.695Z,17.20
2017-09-29T03:48:14.746Z,17.20
2017-09-29T03:50:45.337Z,17.20
2017-09-29T03:53:16.290Z,17.20
2017-09-29T03:55:45.795Z,17.20
2017-09-29T03:58:15.777Z,17.20
2017-09-29T04:00:43.468Z,17.20
2017-09-29T04:03:11.703Z,17.20
2017-09-29T04:05:40.086Z,17.10
2017-09-29T04:08:08.448Z,17.10
2017-09-29T04:10:36.814Z,17.10
2017-09-29T04:13:04.853Z,17.10
2017-09-29T04:15:32.522Z,17.00
2017-09-29T04:18:00.919Z,17.10
2017-09-29T04:20:29.319Z,17.10
2017-09-29T04:22:57.846Z,17.00
2017-09-29T04:25:26.291Z,17.00
2017-09-29T04:27:55.446Z,17.00
2017-09-29T04:30:23.821Z,17.00
2017-09-29T04:32:56.330Z,17.00
2017-09-29T04:35:24.722Z,17.00
2017-09-29T04:37:53.100Z,17.00
2017-09-29T04:40:22.257Z,17.00
2017-09-29T04:42:50.666Z,17.00
2017-09-29T04:45:19.055Z,17.00
2017-09-29T04:47:47.426Z,17.00
2017-09-29T04:50:16.071Z,17.00
2017-09-29T04:52:44.459Z,17.00
2017-09-29T04:55:13.389Z,17.00
2017-09-29T04:57:42.026Z,16.90
2017-09-29T05:00:10.398Z,16.90
2017-09-29T05:02:38.768Z,16.90
2017-09-29T05:05:07.137Z,16.90
2017-09-29T05:07:35.526Z,16.80
2017-09-29T05:10:03.933Z,16.80
2017-09-29T05:12:33.614Z,16.70
2017-09-29T05:15:02.856Z,16.70
2017-09-29T05:17:31.140Z,16.70
2017-09-29T05:19:59.509Z,16.70
2017-09-29T05:22:27.883Z,16.60
2017-09-29T05:24:56.355Z,16.60
2017-09-29T05:27:24.712Z,16.50
2017-09-29T05:29:53.070Z,16.50
2017-09-29T05:32:22.405Z,16.60
2017-09-29T05:34:50.764Z,16.60
2017-09-29T05:37:19.890Z,16.70
2017-09-29T05:39:48.262Z,16.70
2017-09-29T05:42:16.634Z,16.70
2017-09-29T05:44:45.002Z,16.70
2017-09-29T05:47:13.585Z,16.80
2017-09-29T05:49:42.016Z,16.80
2017-09-29T05:52:10.370Z,16.80
2017-09-29T05:54:38.744Z,16.80
2017-09-29T05:57:07.122Z,16.80
2017-09-29T05:59:35.500Z,16.80
2017-09-29T06:02:03.876Z,16.70
2017-09-29T06:04:32.238Z,16.80
2017-09-29T06:07:00.617Z,16.80
2017-09-29T06:09:28.999Z,16.80
2017-09-29T06:11:57.650Z,16.70
2017-09-29T06:14:26.099Z,16.80
2017-09-29T06:16:54.708Z,16.80
2017-09-29T06:19:23.093Z,16.80
2017-09-29T06:21:51.466Z,16.80
2017-09-29T06:24:19.909Z,16.70
2017-09-29T06:26:49.061Z,16.70
2017-09-29T06:29:17.447Z,16.70
2017-09-29T06:31:45.833Z,16.70
2017-09-29T06:34:14.219Z,16.70
2017-09-29T06:36:42.640Z,16.70
2017-09-29T06:39:11.033Z,16.60
2017-09-29T06:41:39.680Z,16.60
2017-09-29T06:44:08.087Z,16.60
2017-09-29T06:46:36.552Z,16.60
2017-09-29T06:49:07.197Z,16.60
2017-09-29T06:51:37.132Z,16.60
2017-09-29T06:54:05.677Z,16.60
2017-09-29T06:56:34.052Z,16.60
2017-09-29T06:59:02.734Z,16.60
2017-09-29T07:01:31.110Z,16.60
2017-09-29T07:03:59.494Z,16.60
2017-09-29T07:06:27.884Z,16.60
2017-09-29T07:08:56.338Z,16.60
2017-09-29T07:11:24.716Z,16.60
2017-09-29T07:13:53.135Z,16.60
2017-09-29T07:16:22.309Z,16.60
2017-09-29T07:18:50.665Z,16.60
2017-09-29T07:21:19.047Z,16.60
2017-09-29T07:23:47.422Z,16.60
2017-09-29T07:26:16.844Z,16.60
2017-09-29T07:28:46.772Z,16.60
2017-09-29T07:31:21.271Z,16.60
2017-09-29T07:33:49.732Z,16.60
2017-09-29T07:36:18.409Z,16.70
2017-09-29T07:38:46.830Z,16.70
2017-09-29T07:41:15.466Z,16.70
2017-09-29T07:43:43.932Z,16.70
2017-09-29T07:46:12.525Z,16.80
2017-09-29T07:48:41.823Z,16.80
2017-09-29T07:51:10.192Z,16.80
2017-09-29T07:53:38.556Z,16.80
2017-09-29T07:56:06.688Z,16.80
2017-09-29T07:58:35.079Z,16.90
2017-09-29T08:01:03.457Z,16.90
2017-09-29T08:03:31.814Z,16.90
2017-09-29T08:06:00.203Z,16.90
2017-09-29T08:08:29.443Z,16.90
2017-09-29T08:10:57.799Z,16.90
2017-09-29T08:13:26.166Z,17.00
2017-09-29T08:15:54.532Z,17.00
2017-09-29T08:18:22.990Z,17.00
2017-09-29T08:20:51.428Z,17.00
2017-09-29T08:23:19.904Z,17.00
2017-09-29T08:25:48.097Z,17.10
2017-09-29T08:28:16.553Z,17.10
2017-09-29T08:30:45.022Z,17.10
2017-09-29T08:33:13.647Z,17.10
2017-09-29T08:35:42.212Z,17.20
2017-09-29T08:38:10.586Z,17.20
2017-09-29T08:40:38.972Z,17.20
2017-09-29T08:43:07.529Z,17.20
2017-09-29T08:45:36.101Z,17.20
2017-09-29T08:48:04.473Z,17.30
2017-09-29T08:50:32.858Z,17.30
2017-09-29T08:53:01.212Z,17.30
2017-09-29T08:55:29.606Z,17.30
2017-09-29T08:57:58.086Z,17.40
2017-09-29T09:00:26.438Z,17.40
2017-09-29T09:02:54.842Z,17.50
2017-09-29T09:05:23.229Z,17.50
2017-09-29T09:07:51.607Z,17.50
2017-09-29T09:10:20.019Z,17.60
2017-09-29T09:12:48.376Z,17.70
2017-09-29T09:15:16.742Z,17.80
2017-09-29T09:17:45.119Z,17.80
2017-09-29T09:20:14.502Z,17.90
2017-09-29T09:22:42.875Z,17.90
2017-09-29T09:25:11.451Z,17.90
2017-09-29T09:27:39.895Z,18.00
2017-09-29T09:30:09.101Z,18.20
2017-09-29T09:32:38.225Z,18.30
2017-09-29T09:35:06.607Z,18.30
2017-09-29T09:37:34.985Z,18.40
2017-09-29T09:40:03.515Z,18.40
2017-09-29T09:42:32.712Z,18.50
2017-09-29T09:45:01.098Z,18.50
2017-09-29T09:47:30.424Z,18.50
2017-09-29T09:49:58.784Z,18.50
2017-09-29T09:52:27.150Z,18.50
2017-09-29T09:54:55.518Z,18.60
2017-09-29T09:57:24.717Z,18.90
2017-09-29T09:59:53.410Z,18.90
2017-09-29T10:02:21.800Z,18.90
2017-09-29T10:04:50.359Z,19.00
2017-09-29T10:07:18.546Z,19.10
2017-09-29T10:09:46.928Z,19.10
2017-09-29T10:12:15.310Z,19.30
2017-09-29T10:14:43.714Z,19.40
2017-09-29T10:17:12.096Z,19.50
2017-09-29T10:19:40.536Z,19.70
2017-09-29T10:22:08.988Z,19.70
2017-09-29T10:24:37.377Z,19.80
2017-09-29T10:27:05.772Z,19.80
2017-09-29T10:29:34.456Z,19.90
2017-09-29T10:32:02.822Z,19.90
2017-09-29T10:34:31.211Z,19.90
2017-09-29T10:36:59.594Z,19.90
2017-09-29T10:39:27.958Z,20.00
2017-09-29T10:41:56.338Z,20.00
2017-09-29T10:44:24.706Z,20.10
2017-09-29T10:46:53.079Z,20.10
2017-09-29T10:49:21.558Z,20.10
2017-09-29T10:51:50.139Z,20.10
2017-09-29T10:54:18.319Z,20.20
2017-09-29T10:56:46.793Z,20.20
2017-09-29T10:59:15.470Z,20.20
2017-09-29T11:01:43.840Z,20.20
2017-09-29T11:04:12.233Z,20.20
2017-09-29T11:06:40.605Z,20.30
2017-09-29T11:09:09.033Z,20.40
2017-09-29T11:11:37.416Z,20.50
2017-09-29T11:14:06.555Z,20.60
2017-09-29T11:16:34.923Z,20.60
2017-09-29T11:19:03.503Z,20.70
2017-09-29T11:21:31.853Z,20.80
2017-09-29T11:24:00.992Z,20.90
2017-09-29T11:26:29.366Z,20.80
2017-09-29T11:28:57.768Z,20.90
2017-09-29T11:31:26.130Z,21.00
2017-09-29T11:33:54.506Z,21.00
2017-09-29T11:36:22.876Z,21.10
2017-09-29T11:38:51.266Z,21.10
2017-09-29T11:41:19.643Z,21.30
2017-09-29T11:43:48.017Z,21.40
2017-09-29T12:47:39.037Z,22.40
2017-09-29T12:50:09.038Z,22.30
2017-09-29T12:52:37.393Z,22.40
2017-09-29T12:55:05.950Z,22.50
2017-09-29T12:57:34.382Z,22.60
2017-09-29T13:00:02.738Z,22.70
2017-09-29T13:02:31.117Z,22.80
2017-09-29T13:04:59.487Z,22.90
2017-09-29T13:07:27.654Z,22.90
2017-09-29T13:09:55.835Z,23.00
2017-09-29T13:12:24.424Z,23.10
2017-09-29T13:14:52.804Z,23.10
2017-09-29T13:17:21.162Z,23.10
2017-09-29T13:19:49.518Z,23.10
2017-09-29T13:22:18.032Z,23.10
2017-09-29T13:24:46.405Z,23.10
2017-09-29T13:27:14.780Z,23.20
2017-09-29T13:29:43.567Z,23.20
2017-09-29T13:32:11.928Z,23.30
2017-09-29T13:34:40.320Z,23.30
2017-09-29T13:37:08.682Z,23.30
2017-09-29T13:39:37.070Z,23.30
2017-09-29T13:42:05.514Z,23.40
2017-09-29T13:44:33.917Z,23.40
2017-09-29T13:47:02.079Z,23.30
2017-09-29T13:49:30.514Z,23.30
2017-09-29T13:51:58.951Z,23.30
2017-09-29T13:54:27.428Z,23.30
2017-09-29T13:56:55.959Z,23.30
2017-09-29T13:59:23.984Z,23.20
2017-09-29T14:01:52.356Z,23.10
2017-09-29T14:04:20.713Z,23.10
2017-09-29T14:06:49.078Z,23.00
2017-09-29T14:09:17.482Z,23.00
2017-09-29T14:11:46.060Z,23.00
2017-09-29T14:14:14.514Z,23.10
2017-09-29T14:16:43.119Z,23.10
2017-09-29T14:19:11.561Z,23.10
2017-09-29T14:21:39.975Z,23.30
2017-09-29T14:24:08.605Z,23.40
2017-09-29T14:26:37.237Z,23.40
2017-09-29T14:29:05.611Z,23.50
2017-09-29T14:31:34.051Z,23.50
2017-09-29T14:34:02.484Z,23.50
2017-09-29T14:36:31.100Z,23.50
2017-09-29T14:38:59.589Z,23.50
2017-09-29T14:41:27.959Z,23.50
2017-09-29T14:43:56.480Z,23.50
2017-09-29T14:46:24.962Z,23.50
2017-09-29T14:48:55.784Z,23.50
2017-09-29T14:51:24.208Z,23.50
2017-09-29T14:53:52.636Z,23.50
2017-09-29T14:56:21.101Z,23.60
2017-09-29T14:58:49.473Z,23.70
2017-09-29T15:01:18.101Z,23.70
2017-09-29T15:03:46.517Z,23.80
2017-09-29T15:06:15.640Z,23.70
2017-09-29T15:08:44.044Z,23.70
2017-09-29T15:11:12.205Z,23.70
2017-09-29T15:13:41.225Z,23.60
2017-09-29T15:16:09.585Z,23.60
2017-09-29T15:18:37.967Z,23.60
2017-09-29T15:21:06.319Z,23.50
2017-09-29T15:23:34.678Z,23.50
2017-09-29T15:26:03.390Z,23.40
2017-09-29T15:28:31.830Z,23.30
2017-09-29T15:31:00.209Z,23.20
2017-09-29T15:33:28.606Z,23.20
2017-09-29T15:35:56.995Z,23.10
2017-09-29T15:38:25.399Z,23.10
2017-09-29T15:40:53.777Z,23.20
2017-09-29T15:43:22.147Z,23.30
2017-09-29T15:45:50.555Z,23.30
2017-09-29T15:48:19.070Z,23.40
2017-09-29T15:50:47.431Z,23.50
2017-09-29T15:53:15.799Z,23.50
2017-09-29T15:55:44.170Z,23.60
2017-09-29T15:58:13.507Z,23.70
2017-09-29T16:00:41.887Z,23.60
2017-09-29T16:03:10.065Z,23.60
2017-09-29T16:05:38.515Z,23.60
2017-09-29T16:08:06.897Z,23.60
2017-09-29T16:10:35.522Z,23.50
2017-09-29T16:13:03.883Z,23.40
2017-09-29T16:15:32.278Z,23.40
2017-09-29T16:18:00.643Z,23.30
2017-09-29T16:20:29.005Z,23.20
2017-09-29T16:22:57.431Z,23.20
2017-09-29T16:25:25.825Z,23.20
2017-09-29T16:27:54.186Z,23.10
2017-09-29T16:30:22.583Z,23.00
2017-09-29T16:32:50.947Z,22.90
2017-09-29T16:35:19.355Z,22.90
2017-09-29T16:37:47.766Z,22.80
2017-09-29T16:40:16.371Z,22.70
2017-09-29T16:42:45.499Z,22.60
2017-09-29T16:45:13.887Z,22.50
2017-09-29T16:47:42.242Z,22.50
2017-09-29T16:50:10.824Z,22.40
2017-09-29T16:52:39.271Z,22.30
2017-09-29T16:55:07.674Z,22.20
2017-09-29T16:57:36.041Z,22.20
2017-09-29T17:00:04.477Z,22.10
2017-09-29T17:02:32.858Z,22.00
2017-09-29T17:05:01.215Z,22.00
2017-09-29T17:07:29.766Z,22.00
2017-09-29T17:09:58.271Z,21.90
2017-09-29T17:12:26.819Z,21.80
2017-09-29T17:14:55.193Z,21.80
2017-09-29T17:17:23.604Z,21.70
2017-09-29T17:19:51.979Z,21.70
2017-09-29T17:22:20.369Z,21.60
2017-09-29T17:24:48.719Z,21.60
2017-09-29T17:27:17.328Z,21.50
2017-09-29T17:29:45.757Z,21.50
2017-09-29T17:32:14.153Z,21.50
2017-09-29T17:34:42.536Z,21.50
2017-09-29T17:37:11.031Z,21.50
2017-09-29T17:39:39.403Z,21.50
2017-09-29T17:42:07.800Z,21.50
2017-09-29T17:44:36.328Z,21.50
2017-09-29T17:47:04.802Z,21.50
2017-09-29T17:49:33.176Z,21.50
2017-09-29T17:52:01.568Z,21.50
2017-09-29T17:54:29.944Z,21.50
2017-09-29T17:56:58.312Z,21.40
2017-09-29T17:59:26.998Z,21.40
2017-09-29T18:01:55.414Z,21.40
2017-09-29T18:04:23.786Z,21.40
2017-09-29T18:06:52.216Z,21.30
2017-09-29T18:09:20.600Z,21.20
2017-09-29T18:11:48.979Z,21.10
2017-09-29T18:14:17.553Z,21.10
2017-09-29T18:16:45.942Z,21.00
2017-09-29T18:19:14.416Z,21.00
2017-09-29T18:21:42.851Z,21.00
2017-09-29T18:24:11.025Z,20.90
2017-09-29T18:26:40.171Z,20.90
2017-09-29T18:29:08.546Z,20.90
2017-09-29T18:31:36.924Z,20.90
2017-09-29T18:34:05.375Z,20.90
2017-09-29T18:36:33.956Z,20.90
2017-09-29T18:39:03.047Z,20.90
2017-09-29T18:41:33.270Z,20.90
2017-09-29T18:44:02.101Z,20.90
2017-09-29T18:46:30.271Z,20.90
2017-09-29T18:48:58.655Z,20.90
2017-09-29T18:51:27.022Z,20.80
2017-09-29T18:53:55.769Z,20.90
2017-09-29T18:56:24.261Z,20.80
2017-09-29T18:58:52.629Z,20.80
2017-09-29T19:01:21.086Z,20.80
2017-09-29T19:03:49.454Z,20.80
2017-09-29T19:06:17.955Z,20.80
2017-09-29T19:08:46.828Z,20.80
2017-09-29T19:11:15.214Z,20.80
2017-09-29T19:13:43.387Z,20.80
2017-09-29T19:16:11.866Z,20.70
2017-09-29T19:18:40.277Z,20.70
2017-09-29T19:21:08.654Z,20.80
2017-09-29T19:23:37.003Z,20.70
2017-09-29T19:26:05.371Z,20.70
2017-09-29T19:28:33.936Z,20.70
2017-09-29T19:31:02.358Z,20.70
2017-09-29T19:33:30.727Z,20.60
2017-09-29T19:35:59.106Z,20.60
2017-09-29T19:38:27.471Z,20.60
2017-09-29T19:40:55.857Z,20.60
2017-09-29T19:43:24.228Z,20.60
2017-09-29T19:45:52.650Z,20.60
2017-09-29T19:48:21.851Z,20.50
2017-09-29T19:50:50.657Z,20.50
2017-09-29T19:53:19.022Z,20.40
2017-09-29T19:55:47.461Z,20.40
2017-09-29T19:58:15.842Z,20.30
2017-09-29T20:00:44.985Z,20.30
2017-09-29T20:03:13.671Z,20.30
2017-09-29T20:05:42.349Z,20.20
2017-09-29T20:08:10.709Z,20.20
2017-09-29T20:10:39.148Z,20.20
2017-09-29T20:13:07.504Z,20.20
2017-09-29T20:15:35.886Z,20.20
2017-09-29T20:18:03.936Z,20.20
2017-09-29T20:20:32.325Z,20.20
2017-09-29T20:23:00.978Z,20.20
2017-09-29T20:25:29.349Z,20.20
2017-09-29T20:27:57.554Z,20.20
2017-09-29T20:30:25.933Z,20.20
2017-09-29T20:32:54.310Z,20.20
2017-09-29T20:35:22.682Z,20.20
2017-09-29T20:37:51.066Z,20.20
2017-09-29T20:40:19.439Z,20.20
2017-09-29T20:42:47.818Z,20.20
2017-09-29T20:45:16.194Z,20.20
2017-09-29T20:47:44.565Z,20.20
2017-09-29T20:50:12.949Z,20.20
2017-09-29T20:52:41.325Z,20.20
2017-09-29T20:55:09.714Z,20.20
2017-09-29T20:57:38.341Z,20.20
2017-09-29T21:00:06.694Z,20.20
2017-09-29T21:02:35.082Z,20.20
2017-09-29T21:05:03.253Z,20.20
2017-09-29T21:07:31.647Z,20.20
2017-09-29T21:10:00.046Z,20.20
2017-09-29T21:12:28.498Z,20.20
2017-09-29T21:14:56.899Z,20.20
2017-09-29T21:17:25.275Z,20.10
2017-09-29T21:19:53.657Z,20.20
2017-09-29T21:22:22.040Z,20.20
2017-09-29T21:24:50.421Z,20.10
2017-09-29T21:27:18.836Z,20.10
2017-09-29T21:29:48.155Z,20.10
2017-09-29T21:32:16.504Z,20.10
2017-09-29T21:34:45.668Z,20.00
2017-09-29T21:37:14.041Z,20.00
2017-09-29T21:39:42.407Z,20.10
2017-09-29T21:42:10.774Z,20.00
2017-09-29T21:44:39.161Z,20.00
2017-09-29T21:47:07.521Z,20.00
2017-09-29T21:49:35.923Z,20.00
2017-09-29T21:52:04.315Z,20.00
2017-09-29T21:54:33.549Z,19.90
2017-09-29T21:57:01.913Z,19.90
2017-09-29T21:59:30.283Z,19.90
2017-09-29T22:01:58.660Z,19.90
2017-09-29T22:04:27.025Z,19.80
2017-09-29T22:06:55.498Z,19.80
2017-09-29T22:09:23.856Z,19.80
2017-09-29T22:11:52.227Z,19.80
2017-09-29T22:14:20.615Z,19.80
2017-09-29T22:16:49.757Z,19.70
2017-09-29T22:19:18.119Z,19.70
2017-09-29T22:21:46.607Z,19.70
2017-09-29T22:24:14.958Z,19.80
2017-09-29T22:26:43.422Z,19.70
2017-09-29T22:29:12.567Z,19.70
2017-09-29T22:31:40.943Z,19.70
2017-09-29T22:34:09.307Z,19.70
2017-09-29T22:36:37.663Z,19.70
2017-09-29T22:39:06.034Z,19.70
2017-09-29T22:41:34.397Z,19.70
2017-09-29T22:44:02.777Z,19.70
2017-09-29T22:46:31.135Z,19.70
2017-09-29T22:48:59.664Z,19.70
2017-09-29T22:51:28.036Z,19.70
2017-09-29T22:53:56.394Z,19.70
2017-09-29T22:56:24.787Z,19.70
2017-09-29T22:58:53.142Z,19.70
2017-09-29T23:01:22.276Z,19.70
2017-09-29T23:03:50.655Z,19.70
2017-09-29T23:06:19.030Z,19.70
2017-09-29T23:08:47.402Z,19.70
2017-09-29T23:11:15.769Z,19.70
2017-09-29T23:13:44.146Z,19.60
2017-09-29T23:16:12.718Z,19.60
2017-09-29T23:18:41.070Z,19.60
2017-09-29T23:21:09.440Z,19.60
2017-09-29T23:23:38.566Z,19.50
2017-09-29T23:26:06.993Z,19.50
2017-09-29T23:28:35.347Z,19.40
2017-09-29T23:31:03.720Z,19.40
2017-09-29T23:33:31.793Z,19.40
2017-09-29T23:36:00.340Z,19.30
2017-09-29T23:38:28.693Z,19.30
2017-09-29T23:40:57.048Z,19.40
2017-09-29T23:43:25.429Z,19.30
2017-09-29T23:45:54.567Z,19.30
2017-09-29T23:48:22.923Z,19.30
2017-09-29T23:50:51.299Z,19.30
2017-09-29T23:53:19.671Z,19.20
2017-09-29T23:55:48.041Z,19.30
2017-09-29T23:58:16.476Z,19.30
